sensor_id;sensor_type;location;lat;lon;timestamp;temperature;humidity
39315;DHT22;28703;44.412;11.918;2023-04-24T00:00:37;18.50;92.50
39315;DHT22;28703;44.412;11.918;2023-04-24T00:03:06;18.50;92.50
39315;DHT22;28703;44.412;11.918;2023-04-24T00:05:32;18.50;92.70
39315;DHT22;28703;44.412;11.918;2023-04-24T00:07:58;18.50;92.80
39315;DHT22;28703;44.412;11.918;2023-04-24T00:10:24;18.50;92.80
39315;DHT22;28703;44.412;11.918;2023-04-24T00:12:52;18.40;93.00
39315;DHT22;28703;44.412;11.918;2023-04-24T00:15:18;18.40;93.00
39315;DHT22;28703;44.412;11.918;2023-04-24T00:17:44;18.40;93.30
39315;DHT22;28703;44.412;11.918;2023-04-24T00:20:10;18.40;93.20
39315;DHT22;28703;44.412;11.918;2023-04-24T00:22:36;18.40;93.10
39315;DHT22;28703;44.412;11.918;2023-04-24T00:25:01;18.40;93.10
39315;DHT22;28703;44.412;11.918;2023-04-24T00:27:27;18.30;93.20
39315;DHT22;28703;44.412;11.918;2023-04-24T00:29:53;18.30;93.00
39315;DHT22;28703;44.412;11.918;2023-04-24T00:32:19;18.30;93.00
39315;DHT22;28703;44.412;11.918;2023-04-24T00:34:45;18.20;92.80
39315;DHT22;28703;44.412;11.918;2023-04-24T00:37:10;18.20;92.80
39315;DHT22;28703;44.412;11.918;2023-04-24T00:39:39;18.20;92.80
39315;DHT22;28703;44.412;11.918;2023-04-24T00:42:04;18.10;92.70
39315;DHT22;28703;44.412;11.918;2023-04-24T00:44:32;18.10;92.50
39315;DHT22;28703;44.412;11.918;2023-04-24T00:46:58;18.10;92.50
39315;DHT22;28703;44.412;11.918;2023-04-24T00:49:24;18.00;92.50
39315;DHT22;28703;44.412;11.918;2023-04-24T00:51:50;18.00;92.50
39315;DHT22;28703;44.412;11.918;2023-04-24T00:54:17;18.00;92.70
39315;DHT22;28703;44.412;11.918;2023-04-24T00:56:43;18.00;92.70
39315;DHT22;28703;44.412;11.918;2023-04-24T00:59:09;18.00;92.80
39315;DHT22;28703;44.412;11.918;2023-04-24T01:01:35;18.00;92.80
39315;DHT22;28703;44.412;11.918;2023-04-24T01:04:02;18.00;92.70
39315;DHT22;28703;44.412;11.918;2023-04-24T01:06:29;18.00;93.00
39315;DHT22;28703;44.412;11.918;2023-04-24T01:08:57;18.00;92.90
39315;DHT22;28703;44.412;11.918;2023-04-24T01:11:23;18.00;93.10
39315;DHT22;28703;44.412;11.918;2023-04-24T01:13:50;18.00;93.20
39315;DHT22;28703;44.412;11.918;2023-04-24T01:16:15;18.00;93.20
39315;DHT22;28703;44.412;11.918;2023-04-24T01:18:43;18.00;93.10
39315;DHT22;28703;44.412;11.918;2023-04-24T01:21:10;18.00;93.40
39315;DHT22;28703;44.412;11.918;2023-04-24T01:23:38;18.00;93.40
39315;DHT22;28703;44.412;11.918;2023-04-24T01:26:04;18.00;93.20
39315;DHT22;28703;44.412;11.918;2023-04-24T01:28:30;18.00;93.30
39315;DHT22;28703;44.412;11.918;2023-04-24T01:30:56;18.00;93.40
39315;DHT22;28703;44.412;11.918;2023-04-24T01:33:22;17.90;93.40
39315;DHT22;28703;44.412;11.918;2023-04-24T01:35:48;17.90;93.40
39315;DHT22;28703;44.412;11.918;2023-04-24T01:38:15;17.90;93.50
39315;DHT22;28703;44.412;11.918;2023-04-24T01:40:40;17.90;93.50
39315;DHT22;28703;44.412;11.918;2023-04-24T01:43:06;17.90;93.80
39315;DHT22;28703;44.412;11.918;2023-04-24T01:45:32;17.80;93.70
39315;DHT22;28703;44.412;11.918;2023-04-24T01:47:58;17.80;93.70
39315;DHT22;28703;44.412;11.918;2023-04-24T01:50:25;17.80;94.00
39315;DHT22;28703;44.412;11.918;2023-04-24T01:52:51;17.80;94.00
39315;DHT22;28703;44.412;11.918;2023-04-24T01:55:17;17.70;94.20
39315;DHT22;28703;44.412;11.918;2023-04-24T01:57:44;17.70;94.10
39315;DHT22;28703;44.412;11.918;2023-04-24T02:00:10;17.70;94.10
39315;DHT22;28703;44.412;11.918;2023-04-24T02:02:40;17.70;94.10
39315;DHT22;28703;44.412;11.918;2023-04-24T02:05:07;17.60;94.20
39315;DHT22;28703;44.412;11.918;2023-04-24T02:07:35;17.60;94.40
39315;DHT22;28703;44.412;11.918;2023-04-24T02:10:01;17.60;94.40
39315;DHT22;28703;44.412;11.918;2023-04-24T02:12:27;17.60;94.50
39315;DHT22;28703;44.412;11.918;2023-04-24T02:14:53;17.60;94.90
39315;DHT22;28703;44.412;11.918;2023-04-24T02:17:18;17.50;94.90
39315;DHT22;28703;44.412;11.918;2023-04-24T02:19:44;17.50;94.80
39315;DHT22;28703;44.412;11.918;2023-04-24T02:22:10;17.50;94.90
39315;DHT22;28703;44.412;11.918;2023-04-24T02:24:36;17.50;95.00
39315;DHT22;28703;44.412;11.918;2023-04-24T02:27:02;17.50;95.20
39315;DHT22;28703;44.412;11.918;2023-04-24T02:29:28;17.50;95.20
39315;DHT22;28703;44.412;11.918;2023-04-24T02:31:54;17.50;95.10
39315;DHT22;28703;44.412;11.918;2023-04-24T02:34:20;17.50;95.10
39315;DHT22;28703;44.412;11.918;2023-04-24T02:36:46;17.50;95.00
39315;DHT22;28703;44.412;11.918;2023-04-24T02:39:14;17.60;95.10
39315;DHT22;28703;44.412;11.918;2023-04-24T02:41:42;17.60;95.30
39315;DHT22;28703;44.412;11.918;2023-04-24T02:44:08;17.60;95.30
39315;DHT22;28703;44.412;11.918;2023-04-24T02:46:34;17.60;95.40
39315;DHT22;28703;44.412;11.918;2023-04-24T02:49:00;17.60;95.30
39315;DHT22;28703;44.412;11.918;2023-04-24T02:51:25;17.60;95.40
39315;DHT22;28703;44.412;11.918;2023-04-24T02:53:52;17.60;95.40
39315;DHT22;28703;44.412;11.918;2023-04-24T02:56:18;17.60;95.50
39315;DHT22;28703;44.412;11.918;2023-04-24T02:58:44;17.60;95.60
39315;DHT22;28703;44.412;11.918;2023-04-24T03:01:10;17.60;95.60
39315;DHT22;28703;44.412;11.918;2023-04-24T03:03:36;17.60;95.50
39315;DHT22;28703;44.412;11.918;2023-04-24T03:06:02;17.60;95.60
39315;DHT22;28703;44.412;11.918;2023-04-24T03:08:31;17.60;95.70
39315;DHT22;28703;44.412;11.918;2023-04-24T03:10:58;17.60;95.70
39315;DHT22;28703;44.412;11.918;2023-04-24T03:13:24;17.60;95.90
39315;DHT22;28703;44.412;11.918;2023-04-24T03:15:58;17.60;96.40
39315;DHT22;28703;44.412;11.918;2023-04-24T03:18:27;17.70;96.80
39315;DHT22;28703;44.412;11.918;2023-04-24T03:20:52;17.60;97.00
39315;DHT22;28703;44.412;11.918;2023-04-24T03:23:18;17.60;96.90
39315;DHT22;28703;44.412;11.918;2023-04-24T03:25:44;17.60;97.50
39315;DHT22;28703;44.412;11.918;2023-04-24T03:28:12;17.60;97.40
39315;DHT22;28703;44.412;11.918;2023-04-24T03:30:41;17.60;97.90
39315;DHT22;28703;44.412;11.918;2023-04-24T03:33:08;17.60;97.80
39315;DHT22;28703;44.412;11.918;2023-04-24T03:35:39;17.60;98.00
39315;DHT22;28703;44.412;11.918;2023-04-24T03:38:08;17.60;98.30
39315;DHT22;28703;44.412;11.918;2023-04-24T03:40:57;17.60;98.10
39315;DHT22;28703;44.412;11.918;2023-04-24T03:43:34;17.50;98.30
39315;DHT22;28703;44.412;11.918;2023-04-24T03:46:01;17.50;98.70
39315;DHT22;28703;44.412;11.918;2023-04-24T03:48:28;17.50;98.50
39315;DHT22;28703;44.412;11.918;2023-04-24T03:50:54;17.40;98.90
39315;DHT22;28703;44.412;11.918;2023-04-24T03:53:20;17.50;99.20
39315;DHT22;28703;44.412;11.918;2023-04-24T03:55:46;17.40;99.50
39315;DHT22;28703;44.412;11.918;2023-04-24T03:58:13;17.40;99.70
39315;DHT22;28703;44.412;11.918;2023-04-24T04:00:40;17.40;99.50
39315;DHT22;28703;44.412;11.918;2023-04-24T04:03:35;17.40;99.70
39315;DHT22;28703;44.412;11.918;2023-04-24T04:06:01;17.30;99.90
39315;DHT22;28703;44.412;11.918;2023-04-24T04:08:30;17.30;99.90
39315;DHT22;28703;44.412;11.918;2023-04-24T04:10:57;17.30;99.90
39315;DHT22;28703;44.412;11.918;2023-04-24T04:13:25;17.20;99.90
39315;DHT22;28703;44.412;11.918;2023-04-24T04:15:54;17.20;99.90
39315;DHT22;28703;44.412;11.918;2023-04-24T04:18:25;17.20;99.90
39315;DHT22;28703;44.412;11.918;2023-04-24T04:20:51;17.20;99.90
39315;DHT22;28703;44.412;11.918;2023-04-24T04:23:18;17.10;99.90
39315;DHT22;28703;44.412;11.918;2023-04-24T04:25:57;17.10;99.90
39315;DHT22;28703;44.412;11.918;2023-04-24T04:28:32;17.10;99.90
39315;DHT22;28703;44.412;11.918;2023-04-24T04:30:58;17.00;99.90
39315;DHT22;28703;44.412;11.918;2023-04-24T04:33:26;17.10;99.90
39315;DHT22;28703;44.412;11.918;2023-04-24T04:35:52;17.00;99.90
39315;DHT22;28703;44.412;11.918;2023-04-24T04:38:21;17.00;99.90
39315;DHT22;28703;44.412;11.918;2023-04-24T04:41:08;17.00;99.90
39315;DHT22;28703;44.412;11.918;2023-04-24T04:43:40;17.00;99.90
39315;DHT22;28703;44.412;11.918;2023-04-24T04:46:09;17.00;99.90
39315;DHT22;28703;44.412;11.918;2023-04-24T04:48:47;16.90;99.90
39315;DHT22;28703;44.412;11.918;2023-04-24T04:51:14;16.90;99.90
39315;DHT22;28703;44.412;11.918;2023-04-24T04:53:42;16.90;99.90
39315;DHT22;28703;44.412;11.918;2023-04-24T04:56:08;16.90;99.90
39315;DHT22;28703;44.412;11.918;2023-04-24T04:58:44;16.90;99.90
39315;DHT22;28703;44.412;11.918;2023-04-24T05:01:14;16.90;99.90
39315;DHT22;28703;44.412;11.918;2023-04-24T05:03:44;16.90;99.90
39315;DHT22;28703;44.412;11.918;2023-04-24T05:06:13;16.90;99.90
39315;DHT22;28703;44.412;11.918;2023-04-24T05:08:42;16.90;99.90
39315;DHT22;28703;44.412;11.918;2023-04-24T05:11:22;16.90;99.90
39315;DHT22;28703;44.412;11.918;2023-04-24T05:13:48;16.90;99.90
39315;DHT22;28703;44.412;11.918;2023-04-24T05:16:19;16.90;99.90
39315;DHT22;28703;44.412;11.918;2023-04-24T05:18:46;16.90;99.90
39315;DHT22;28703;44.412;11.918;2023-04-24T05:21:15;16.90;99.90
39315;DHT22;28703;44.412;11.918;2023-04-24T05:23:44;17.00;99.90
39315;DHT22;28703;44.412;11.918;2023-04-24T05:26:20;17.00;99.90
39315;DHT22;28703;44.412;11.918;2023-04-24T05:28:48;17.00;99.90
39315;DHT22;28703;44.412;11.918;2023-04-24T05:31:22;17.00;99.90
39315;DHT22;28703;44.412;11.918;2023-04-24T05:33:49;17.00;99.90
39315;DHT22;28703;44.412;11.918;2023-04-24T05:36:18;17.00;99.90
39315;DHT22;28703;44.412;11.918;2023-04-24T05:38:43;17.00;99.90
39315;DHT22;28703;44.412;11.918;2023-04-24T05:41:10;17.00;99.90
39315;DHT22;28703;44.412;11.918;2023-04-24T05:43:38;17.10;99.90
39315;DHT22;28703;44.412;11.918;2023-04-24T05:46:04;17.10;99.90
39315;DHT22;28703;44.412;11.918;2023-04-24T05:48:30;17.10;99.90
39315;DHT22;28703;44.412;11.918;2023-04-24T05:50:57;17.10;99.90
39315;DHT22;28703;44.412;11.918;2023-04-24T05:53:26;17.10;99.90
39315;DHT22;28703;44.412;11.918;2023-04-24T05:55:56;17.20;99.90
39315;DHT22;28703;44.412;11.918;2023-04-24T05:58:24;17.20;99.90
39315;DHT22;28703;44.412;11.918;2023-04-24T06:00:53;17.20;99.90
39315;DHT22;28703;44.412;11.918;2023-04-24T06:03:32;17.20;99.90
39315;DHT22;28703;44.412;11.918;2023-04-24T06:06:01;17.20;99.90
39315;DHT22;28703;44.412;11.918;2023-04-24T06:08:26;17.10;99.90
39315;DHT22;28703;44.412;11.918;2023-04-24T06:10:52;17.10;99.90
39315;DHT22;28703;44.412;11.918;2023-04-24T06:16:01;17.00;99.90
39315;DHT22;28703;44.412;11.918;2023-04-24T06:18:32;17.00;99.90
39315;DHT22;28703;44.412;11.918;2023-04-24T06:20:58;17.00;99.90
39315;DHT22;28703;44.412;11.918;2023-04-24T06:23:25;17.00;99.90
39315;DHT22;28703;44.412;11.918;2023-04-24T06:25:51;17.00;99.90
39315;DHT22;28703;44.412;11.918;2023-04-24T06:28:17;17.00;99.90
39315;DHT22;28703;44.412;11.918;2023-04-24T06:30:43;17.00;99.90
39315;DHT22;28703;44.412;11.918;2023-04-24T06:33:11;17.00;99.90
39315;DHT22;28703;44.412;11.918;2023-04-24T06:35:38;17.00;99.90
39315;DHT22;28703;44.412;11.918;2023-04-24T06:38:06;17.00;99.90
39315;DHT22;28703;44.412;11.918;2023-04-24T06:40:52;16.90;99.90
39315;DHT22;28703;44.412;11.918;2023-04-24T06:43:19;16.80;99.90
39315;DHT22;28703;44.412;11.918;2023-04-24T06:45:46;16.80;99.90
39315;DHT22;28703;44.412;11.918;2023-04-24T06:48:17;16.70;99.90
39315;DHT22;28703;44.412;11.918;2023-04-24T06:50:47;16.70;99.90
39315;DHT22;28703;44.412;11.918;2023-04-24T06:53:13;16.70;99.90
39315;DHT22;28703;44.412;11.918;2023-04-24T06:55:44;16.70;99.90
39315;DHT22;28703;44.412;11.918;2023-04-24T06:58:13;16.60;99.90
39315;DHT22;28703;44.412;11.918;2023-04-24T07:00:39;16.50;99.90
39315;DHT22;28703;44.412;11.918;2023-04-24T07:03:06;16.40;99.90
39315;DHT22;28703;44.412;11.918;2023-04-24T07:05:31;16.30;99.90
39315;DHT22;28703;44.412;11.918;2023-04-24T07:08:02;16.20;99.90
39315;DHT22;28703;44.412;11.918;2023-04-24T07:10:31;16.20;99.90
39315;DHT22;28703;44.412;11.918;2023-04-24T07:13:00;16.20;99.90
39315;DHT22;28703;44.412;11.918;2023-04-24T07:15:35;16.20;99.90
39315;DHT22;28703;44.412;11.918;2023-04-24T07:18:02;16.20;99.90
39315;DHT22;28703;44.412;11.918;2023-04-24T07:20:34;16.20;99.90
39315;DHT22;28703;44.412;11.918;2023-04-24T07:23:02;16.20;99.90
39315;DHT22;28703;44.412;11.918;2023-04-24T07:25:28;16.20;99.90
39315;DHT22;28703;44.412;11.918;2023-04-24T07:27:56;16.20;99.90
39315;DHT22;28703;44.412;11.918;2023-04-24T07:30:24;16.20;99.90
39315;DHT22;28703;44.412;11.918;2023-04-24T07:32:53;16.30;99.90
39315;DHT22;28703;44.412;11.918;2023-04-24T07:35:19;16.30;99.90
39315;DHT22;28703;44.412;11.918;2023-04-24T07:37:46;16.30;99.90
39315;DHT22;28703;44.412;11.918;2023-04-24T07:40:14;16.40;99.90
39315;DHT22;28703;44.412;11.918;2023-04-24T07:42:40;16.50;99.90
39315;DHT22;28703;44.412;11.918;2023-04-24T07:45:07;16.60;99.90
39315;DHT22;28703;44.412;11.918;2023-04-24T07:47:33;16.70;99.90
39315;DHT22;28703;44.412;11.918;2023-04-24T07:49:59;16.80;99.90
39315;DHT22;28703;44.412;11.918;2023-04-24T07:52:26;16.90;99.90
39315;DHT22;28703;44.412;11.918;2023-04-24T07:54:51;17.00;99.90
39315;DHT22;28703;44.412;11.918;2023-04-24T07:57:24;17.10;99.90
39315;DHT22;28703;44.412;11.918;2023-04-24T07:59:50;17.10;99.90
39315;DHT22;28703;44.412;11.918;2023-04-24T08:02:16;17.10;99.90
39315;DHT22;28703;44.412;11.918;2023-04-24T08:04:44;17.20;99.90
39315;DHT22;28703;44.412;11.918;2023-04-24T08:07:10;17.40;99.90
39315;DHT22;28703;44.412;11.918;2023-04-24T08:09:44;17.50;99.90
39315;DHT22;28703;44.412;11.918;2023-04-24T08:12:14;17.60;99.90
39315;DHT22;28703;44.412;11.918;2023-04-24T08:14:41;17.70;99.90
39315;DHT22;28703;44.412;11.918;2023-04-24T08:17:07;17.80;99.90
39315;DHT22;28703;44.412;11.918;2023-04-24T08:19:33;17.90;99.90
39315;DHT22;28703;44.412;11.918;2023-04-24T08:21:59;18.00;99.90
39315;DHT22;28703;44.412;11.918;2023-04-24T08:24:24;18.00;99.90
39315;DHT22;28703;44.412;11.918;2023-04-24T08:26:51;18.00;99.90
39315;DHT22;28703;44.412;11.918;2023-04-24T08:29:27;18.10;99.90
39315;DHT22;28703;44.412;11.918;2023-04-24T08:31:58;18.10;99.90
39315;DHT22;28703;44.412;11.918;2023-04-24T08:34:27;18.20;99.90
39315;DHT22;28703;44.412;11.918;2023-04-24T08:36:53;18.20;99.90
39315;DHT22;28703;44.412;11.918;2023-04-24T08:39:21;18.20;99.90
39315;DHT22;28703;44.412;11.918;2023-04-24T08:41:52;18.20;99.90
39315;DHT22;28703;44.412;11.918;2023-04-24T08:44:19;18.20;99.90
39315;DHT22;28703;44.412;11.918;2023-04-24T08:46:50;18.20;99.90
39315;DHT22;28703;44.412;11.918;2023-04-24T08:49:25;18.30;99.90
39315;DHT22;28703;44.412;11.918;2023-04-24T08:51:52;18.30;99.90
39315;DHT22;28703;44.412;11.918;2023-04-24T08:54:18;18.50;99.90
39315;DHT22;28703;44.412;11.918;2023-04-24T08:56:44;18.50;99.90
39315;DHT22;28703;44.412;11.918;2023-04-24T08:59:10;18.50;99.90
39315;DHT22;28703;44.412;11.918;2023-04-24T09:01:37;18.50;99.90
39315;DHT22;28703;44.412;11.918;2023-04-24T09:04:03;18.60;99.90
39315;DHT22;28703;44.412;11.918;2023-04-24T09:06:29;18.60;99.90
39315;DHT22;28703;44.412;11.918;2023-04-24T09:09:01;18.60;99.40
39315;DHT22;28703;44.412;11.918;2023-04-24T09:11:27;18.60;99.00
39315;DHT22;28703;44.412;11.918;2023-04-24T09:13:56;18.70;99.40
39315;DHT22;28703;44.412;11.918;2023-04-24T09:16:21;18.70;99.50
39315;DHT22;28703;44.412;11.918;2023-04-24T09:18:51;18.70;99.70
39315;DHT22;28703;44.412;11.918;2023-04-24T09:21:16;18.70;99.40
39315;DHT22;28703;44.412;11.918;2023-04-24T09:23:42;18.70;99.30
39315;DHT22;28703;44.412;11.918;2023-04-24T09:26:09;18.80;99.20
39315;DHT22;28703;44.412;11.918;2023-04-24T09:28:36;18.90;99.10
39315;DHT22;28703;44.412;11.918;2023-04-24T09:31:14;18.90;99.00
39315;DHT22;28703;44.412;11.918;2023-04-24T09:33:56;18.90;99.20
39315;DHT22;28703;44.412;11.918;2023-04-24T09:36:35;19.00;99.20
39315;DHT22;28703;44.412;11.918;2023-04-24T09:39:11;19.00;99.50
39315;DHT22;28703;44.412;11.918;2023-04-24T09:41:51;19.00;99.90
39315;DHT22;28703;44.412;11.918;2023-04-24T09:44:21;19.00;99.70
39315;DHT22;28703;44.412;11.918;2023-04-24T09:46:59;19.00;98.10
39315;DHT22;28703;44.412;11.918;2023-04-24T09:49:28;18.90;98.60
39315;DHT22;28703;44.412;11.918;2023-04-24T09:52:04;19.00;99.00
39315;DHT22;28703;44.412;11.918;2023-04-24T09:54:30;19.10;99.90
39315;DHT22;28703;44.412;11.918;2023-04-24T09:56:56;19.10;99.90
39315;DHT22;28703;44.412;11.918;2023-04-24T09:59:25;19.10;99.50
39315;DHT22;28703;44.412;11.918;2023-04-24T10:01:51;19.10;99.20
39315;DHT22;28703;44.412;11.918;2023-04-24T10:04:18;19.20;99.10
39315;DHT22;28703;44.412;11.918;2023-04-24T10:06:45;19.30;99.30
39315;DHT22;28703;44.412;11.918;2023-04-24T10:09:11;19.40;98.90
39315;DHT22;28703;44.412;11.918;2023-04-24T10:11:39;19.40;98.70
39315;DHT22;28703;44.412;11.918;2023-04-24T10:14:06;19.30;98.30
39315;DHT22;28703;44.412;11.918;2023-04-24T10:16:35;19.30;98.50
39315;DHT22;28703;44.412;11.918;2023-04-24T10:19:01;19.10;99.10
39315;DHT22;28703;44.412;11.918;2023-04-24T10:21:28;18.90;99.50
39315;DHT22;28703;44.412;11.918;2023-04-24T10:23:57;18.70;99.90
39315;DHT22;28703;44.412;11.918;2023-04-24T10:26:26;18.40;99.90
39315;DHT22;28703;44.412;11.918;2023-04-24T10:28:52;18.40;99.90
39315;DHT22;28703;44.412;11.918;2023-04-24T10:31:19;18.30;99.90
39315;DHT22;28703;44.412;11.918;2023-04-24T10:33:46;18.20;99.90
39315;DHT22;28703;44.412;11.918;2023-04-24T10:36:18;18.10;99.90
39315;DHT22;28703;44.412;11.918;2023-04-24T10:38:55;17.90;99.90
39315;DHT22;28703;44.412;11.918;2023-04-24T10:41:22;17.80;99.90
39315;DHT22;28703;44.412;11.918;2023-04-24T10:44:08;17.80;99.90
39315;DHT22;28703;44.412;11.918;2023-04-24T10:46:35;17.80;99.90
39315;DHT22;28703;44.412;11.918;2023-04-24T10:49:07;17.80;99.90
39315;DHT22;28703;44.412;11.918;2023-04-24T10:51:49;17.90;99.90
39315;DHT22;28703;44.412;11.918;2023-04-24T10:54:35;17.90;99.90
39315;DHT22;28703;44.412;11.918;2023-04-24T10:59:49;18.00;99.90
39315;DHT22;28703;44.412;11.918;2023-04-24T11:02:16;18.00;99.90
39315;DHT22;28703;44.412;11.918;2023-04-24T11:04:42;18.00;99.90
39315;DHT22;28703;44.412;11.918;2023-04-24T11:07:09;18.00;99.90
39315;DHT22;28703;44.412;11.918;2023-04-24T11:09:37;18.20;99.90
39315;DHT22;28703;44.412;11.918;2023-04-24T11:12:09;18.30;99.90
39315;DHT22;28703;44.412;11.918;2023-04-24T11:17:31;18.60;99.30
39315;DHT22;28703;44.412;11.918;2023-04-24T11:20:07;18.70;97.80
39315;DHT22;28703;44.412;11.918;2023-04-24T11:22:36;18.70;97.60
39315;DHT22;28703;44.412;11.918;2023-04-24T11:25:06;18.70;97.60
39315;DHT22;28703;44.412;11.918;2023-04-24T11:27:44;18.80;97.10
39315;DHT22;28703;44.412;11.918;2023-04-24T11:30:17;18.80;97.20
39315;DHT22;28703;44.412;11.918;2023-04-24T11:32:43;18.70;97.50
39315;DHT22;28703;44.412;11.918;2023-04-24T11:35:21;18.70;97.80
39315;DHT22;28703;44.412;11.918;2023-04-24T11:37:52;18.60;97.80
39315;DHT22;28703;44.412;11.918;2023-04-24T11:40:24;18.60;98.00
39315;DHT22;28703;44.412;11.918;2023-04-24T11:42:59;18.60;98.80
39315;DHT22;28703;44.412;11.918;2023-04-24T11:45:34;18.70;98.60
39315;DHT22;28703;44.412;11.918;2023-04-24T11:48:03;18.70;98.90
39315;DHT22;28703;44.412;11.918;2023-04-24T11:50:37;18.80;98.80
39315;DHT22;28703;44.412;11.918;2023-04-24T11:53:06;18.80;98.90
39315;DHT22;28703;44.412;11.918;2023-04-24T11:55:42;18.80;99.00
39315;DHT22;28703;44.412;11.918;2023-04-24T11:58:20;18.90;99.10
39315;DHT22;28703;44.412;11.918;2023-04-24T12:00:55;19.00;98.90
39315;DHT22;28703;44.412;11.918;2023-04-24T12:03:30;19.10;98.80
39315;DHT22;28703;44.412;11.918;2023-04-24T12:06:09;19.20;98.10
39315;DHT22;28703;44.412;11.918;2023-04-24T12:08:40;19.20;97.90
39315;DHT22;28703;44.412;11.918;2023-04-24T12:11:06;19.20;98.00
39315;DHT22;28703;44.412;11.918;2023-04-24T12:13:33;19.40;98.10
39315;DHT22;28703;44.412;11.918;2023-04-24T12:16:03;19.30;98.40
39315;DHT22;28703;44.412;11.918;2023-04-24T12:18:30;19.50;98.00
39315;DHT22;28703;44.412;11.918;2023-04-24T12:21:14;19.60;98.10
39315;DHT22;28703;44.412;11.918;2023-04-24T12:23:42;19.80;97.90
39315;DHT22;28703;44.412;11.918;2023-04-24T12:26:09;19.80;98.20
39315;DHT22;28703;44.412;11.918;2023-04-24T12:28:36;20.00;98.10
39315;DHT22;28703;44.412;11.918;2023-04-24T12:31:02;20.20;97.60
39315;DHT22;28703;44.412;11.918;2023-04-24T12:33:34;20.40;97.80
39315;DHT22;28703;44.412;11.918;2023-04-24T12:36:00;20.50;97.60
39315;DHT22;28703;44.412;11.918;2023-04-24T12:38:29;20.70;97.30
39315;DHT22;28703;44.412;11.918;2023-04-24T12:41:05;20.70;97.00
39315;DHT22;28703;44.412;11.918;2023-04-24T12:45:58;20.90;97.40
39315;DHT22;28703;44.412;11.918;2023-04-24T12:48:25;21.10;97.60
39315;DHT22;28703;44.412;11.918;2023-04-24T12:50:51;21.10;96.90
39315;DHT22;28703;44.412;11.918;2023-04-24T12:53:20;21.00;96.70
39315;DHT22;28703;44.412;11.918;2023-04-24T12:55:54;21.20;95.80
39315;DHT22;28703;44.412;11.918;2023-04-24T12:58:20;21.30;95.50
39315;DHT22;28703;44.412;11.918;2023-04-24T13:00:47;21.50;94.70
39315;DHT22;28703;44.412;11.918;2023-04-24T13:03:13;21.70;94.50
39315;DHT22;28703;44.412;11.918;2023-04-24T13:05:39;21.70;94.20
39315;DHT22;28703;44.412;11.918;2023-04-24T13:08:06;21.70;94.40
39315;DHT22;28703;44.412;11.918;2023-04-24T13:10:31;21.80;94.30
39315;DHT22;28703;44.412;11.918;2023-04-24T13:12:57;21.80;94.20
39315;DHT22;28703;44.412;11.918;2023-04-24T13:15:26;21.80;94.40
39315;DHT22;28703;44.412;11.918;2023-04-24T13:17:52;21.90;94.40
39315;DHT22;28703;44.412;11.918;2023-04-24T13:20:18;22.10;94.60
39315;DHT22;28703;44.412;11.918;2023-04-24T13:22:44;22.30;92.70
39315;DHT22;28703;44.412;11.918;2023-04-24T13:25:10;22.50;91.70
39315;DHT22;28703;44.412;11.918;2023-04-24T13:27:38;22.80;90.40
39315;DHT22;28703;44.412;11.918;2023-04-24T13:30:04;22.90;88.50
39315;DHT22;28703;44.412;11.918;2023-04-24T13:32:35;23.10;88.70
39315;DHT22;28703;44.412;11.918;2023-04-24T13:35:08;23.30;89.10
39315;DHT22;28703;44.412;11.918;2023-04-24T13:37:34;23.50;90.30
39315;DHT22;28703;44.412;11.918;2023-04-24T13:40:00;23.70;88.60
39315;DHT22;28703;44.412;11.918;2023-04-24T13:42:31;23.80;87.70
39315;DHT22;28703;44.412;11.918;2023-04-24T13:44:57;24.00;88.70
39315;DHT22;28703;44.412;11.918;2023-04-24T13:47:23;24.20;89.00
39315;DHT22;28703;44.412;11.918;2023-04-24T13:49:56;24.40;89.30
39315;DHT22;28703;44.412;11.918;2023-04-24T13:52:22;24.60;87.30
39315;DHT22;28703;44.412;11.918;2023-04-24T13:54:48;24.70;87.70
39315;DHT22;28703;44.412;11.918;2023-04-24T13:57:22;24.70;86.30
39315;DHT22;28703;44.412;11.918;2023-04-24T13:59:58;24.90;86.90
39315;DHT22;28703;44.412;11.918;2023-04-24T14:02:32;25.00;85.90
39315;DHT22;28703;44.412;11.918;2023-04-24T14:05:03;25.20;86.40
39315;DHT22;28703;44.412;11.918;2023-04-24T14:07:29;25.30;86.70
39315;DHT22;28703;44.412;11.918;2023-04-24T14:09:55;25.40;86.90
39315;DHT22;28703;44.412;11.918;2023-04-24T14:12:22;25.60;86.40
39315;DHT22;28703;44.412;11.918;2023-04-24T14:14:49;25.80;85.90
39315;DHT22;28703;44.412;11.918;2023-04-24T14:17:15;25.90;86.00
39315;DHT22;28703;44.412;11.918;2023-04-24T14:19:47;26.10;86.50
39315;DHT22;28703;44.412;11.918;2023-04-24T14:22:13;26.10;85.50
39315;DHT22;28703;44.412;11.918;2023-04-24T14:24:39;26.10;85.10
39315;DHT22;28703;44.412;11.918;2023-04-24T14:27:05;26.30;85.40
39315;DHT22;28703;44.412;11.918;2023-04-24T14:29:31;26.40;86.30
39315;DHT22;28703;44.412;11.918;2023-04-24T14:31:57;26.50;85.60
39315;DHT22;28703;44.412;11.918;2023-04-24T14:34:23;26.60;85.90
39315;DHT22;28703;44.412;11.918;2023-04-24T14:36:51;26.70;85.50
39315;DHT22;28703;44.412;11.918;2023-04-24T14:39:18;26.70;86.10
39315;DHT22;28703;44.412;11.918;2023-04-24T14:41:44;26.60;87.40
39315;DHT22;28703;44.412;11.918;2023-04-24T14:44:10;26.60;87.10
39315;DHT22;28703;44.412;11.918;2023-04-24T14:46:36;26.50;86.80
39315;DHT22;28703;44.412;11.918;2023-04-24T14:49:02;26.40;86.90
39315;DHT22;28703;44.412;11.918;2023-04-24T14:51:30;26.20;87.30
39315;DHT22;28703;44.412;11.918;2023-04-24T14:53:57;26.00;87.60
39315;DHT22;28703;44.412;11.918;2023-04-24T14:56:23;26.00;87.70
39315;DHT22;28703;44.412;11.918;2023-04-24T14:58:49;25.80;88.10
39315;DHT22;28703;44.412;11.918;2023-04-24T15:01:18;25.80;88.20
39315;DHT22;28703;44.412;11.918;2023-04-24T15:03:44;25.80;87.90
39315;DHT22;28703;44.412;11.918;2023-04-24T15:06:11;25.90;88.60
39315;DHT22;28703;44.412;11.918;2023-04-24T15:08:37;26.10;87.50
39315;DHT22;28703;44.412;11.918;2023-04-24T15:11:29;26.20;87.10
39315;DHT22;28703;44.412;11.918;2023-04-24T15:14:07;26.40;86.20
39315;DHT22;28703;44.412;11.918;2023-04-24T15:16:36;26.60;86.10
39315;DHT22;28703;44.412;11.918;2023-04-24T15:19:05;26.70;85.70
39315;DHT22;28703;44.412;11.918;2023-04-24T15:21:35;26.70;84.80
39315;DHT22;28703;44.412;11.918;2023-04-24T15:24:04;26.70;84.40
39315;DHT22;28703;44.412;11.918;2023-04-24T15:26:30;26.50;83.50
39315;DHT22;28703;44.412;11.918;2023-04-24T15:28:56;26.40;83.90
39315;DHT22;28703;44.412;11.918;2023-04-24T15:31:25;26.40;83.80
39315;DHT22;28703;44.412;11.918;2023-04-24T15:33:54;26.20;83.70